sensor_id;sensor_type;location;lat;lon;timestamp;P1;durP1;ratioP1;P2;durP2;ratioP2
16977;SDS011;8605;52.548;4.918;2022-09-09T00:04:18;13.03;;;2.90;;
16977;SDS011;8605;52.548;4.918;2022-09-09T00:09:46;3.83;;;2.40;;
16977;SDS011;8605;52.548;4.918;2022-09-09T00:15:13;4.53;;;2.17;;
16977;SDS011;8605;52.548;4.918;2022-09-09T00:20:38;7.90;;;2.53;;
16977;SDS011;8605;52.548;4.918;2022-09-09T00:26:08;3.80;;;2.50;;
16977;SDS011;8605;52.548;4.918;2022-09-09T00:31:36;6.03;;;2.30;;
16977;SDS011;8605;52.548;4.918;2022-09-09T00:36:59;5.07;;;2.83;;
16977;SDS011;8605;52.548;4.918;2022-09-09T00:42:23;3.93;;;2.23;;
16977;SDS011;8605;52.548;4.918;2022-09-09T00:47:49;5.07;;;2.63;;
16977;SDS011;8605;52.548;4.918;2022-09-09T00:53:22;6.23;;;1.90;;
16977;SDS011;8605;52.548;4.918;2022-09-09T00:58:52;4.70;;;2.40;;
16977;SDS011;8605;52.548;4.918;2022-09-09T01:04:23;2.83;;;2.10;;
16977;SDS011;8605;52.548;4.918;2022-09-09T01:09:51;8.30;;;2.50;;
16977;SDS011;8605;52.548;4.918;2022-09-09T01:15:16;3.13;;;2.47;;
16977;SDS011;8605;52.548;4.918;2022-09-09T01:20:47;8.67;;;3.60;;
16977;SDS011;8605;52.548;4.918;2022-09-09T01:32:02;5.30;;;3.60;;
16977;SDS011;8605;52.548;4.918;2022-09-09T01:37:41;8.53;;;4.67;;
16977;SDS011;8605;52.548;4.918;2022-09-09T01:43:05;5.43;;;4.23;;
16977;SDS011;8605;52.548;4.918;2022-09-09T01:48:30;7.63;;;3.80;;
16977;SDS011;8605;52.548;4.918;2022-09-09T01:53:57;8.40;;;4.07;;
16977;SDS011;8605;52.548;4.918;2022-09-09T01:59:26;19.50;;;5.53;;
16977;SDS011;8605;52.548;4.918;2022-09-09T02:04:57;8.73;;;4.90;;
16977;SDS011;8605;52.548;4.918;2022-09-09T02:10:28;8.23;;;4.63;;
16977;SDS011;8605;52.548;4.918;2022-09-09T02:16:06;15.40;;;5.57;;
16977;SDS011;8605;52.548;4.918;2022-09-09T02:21:31;9.77;;;6.10;;
16977;SDS011;8605;52.548;4.918;2022-09-09T02:26:57;16.00;;;8.03;;
16977;SDS011;8605;52.548;4.918;2022-09-09T02:32:24;17.43;;;6.60;;
16977;SDS011;8605;52.548;4.918;2022-09-09T02:37:47;14.47;;;7.00;;
16977;SDS011;8605;52.548;4.918;2022-09-09T02:43:13;19.63;;;7.87;;
16977;SDS011;8605;52.548;4.918;2022-09-09T02:48:41;7.63;;;5.70;;
16977;SDS011;8605;52.548;4.918;2022-09-09T02:54:10;11.57;;;6.37;;
16977;SDS011;8605;52.548;4.918;2022-09-09T02:59:39;10.00;;;6.07;;
16977;SDS011;8605;52.548;4.918;2022-09-09T03:05:05;14.57;;;6.10;;
16977;SDS011;8605;52.548;4.918;2022-09-09T03:10:30;7.90;;;5.57;;
16977;SDS011;8605;52.548;4.918;2022-09-09T03:15:53;8.90;;;6.27;;
16977;SDS011;8605;52.548;4.918;2022-09-09T03:21:18;9.97;;;6.43;;
16977;SDS011;8605;52.548;4.918;2022-09-09T03:26:43;15.30;;;6.83;;
16977;SDS011;8605;52.548;4.918;2022-09-09T03:32:10;11.33;;;7.23;;
16977;SDS011;8605;52.548;4.918;2022-09-09T03:37:35;14.60;;;6.57;;
16977;SDS011;8605;52.548;4.918;2022-09-09T03:43:01;11.23;;;6.77;;
16977;SDS011;8605;52.548;4.918;2022-09-09T03:48:24;9.10;;;6.07;;
16977;SDS011;8605;52.548;4.918;2022-09-09T03:53:51;12.87;;;7.67;;
16977;SDS011;8605;52.548;4.918;2022-09-09T03:59:21;11.90;;;6.37;;
16977;SDS011;8605;52.548;4.918;2022-09-09T04:04:44;10.10;;;5.67;;
16977;SDS011;8605;52.548;4.918;2022-09-09T04:10:10;10.20;;;5.93;;
16977;SDS011;8605;52.548;4.918;2022-09-09T04:15:34;15.33;;;6.17;;
16977;SDS011;8605;52.548;4.918;2022-09-09T04:20:58;12.93;;;6.23;;
16977;SDS011;8605;52.548;4.918;2022-09-09T04:26:25;11.90;;;4.83;;
16977;SDS011;8605;52.548;4.918;2022-09-09T04:31:48;14.07;;;6.50;;
16977;SDS011;8605;52.548;4.918;2022-09-09T04:37:12;10.77;;;5.20;;
16977;SDS011;8605;52.548;4.918;2022-09-09T04:42:38;8.97;;;5.23;;
16977;SDS011;8605;52.548;4.918;2022-09-09T04:48:07;8.53;;;5.53;;
16977;SDS011;8605;52.548;4.918;2022-09-09T04:53:32;11.47;;;5.37;;
16977;SDS011;8605;52.548;4.918;2022-09-09T04:58:57;7.93;;;5.23;;
16977;SDS011;8605;52.548;4.918;2022-09-09T05:04:30;10.83;;;5.87;;
16977;SDS011;8605;52.548;4.918;2022-09-09T05:09:54;9.00;;;4.30;;
16977;SDS011;8605;52.548;4.918;2022-09-09T05:15:20;6.40;;;4.43;;
16977;SDS011;8605;52.548;4.918;2022-09-09T05:20:43;6.60;;;4.17;;
16977;SDS011;8605;52.548;4.918;2022-09-09T05:26:08;5.93;;;4.00;;
16977;SDS011;8605;52.548;4.918;2022-09-09T05:31:43;8.33;;;3.97;;
16977;SDS011;8605;52.548;4.918;2022-09-09T05:37:09;6.47;;;3.53;;
16977;SDS011;8605;52.548;4.918;2022-09-09T05:42:32;7.27;;;4.37;;
16977;SDS011;8605;52.548;4.918;2022-09-09T05:47:57;5.10;;;3.30;;
16977;SDS011;8605;52.548;4.918;2022-09-09T05:53:21;7.20;;;3.20;;
16977;SDS011;8605;52.548;4.918;2022-09-09T05:58:46;6.73;;;3.00;;
16977;SDS011;8605;52.548;4.918;2022-09-09T06:04:14;7.47;;;3.50;;
16977;SDS011;8605;52.548;4.918;2022-09-09T06:09:37;7.57;;;2.87;;
16977;SDS011;8605;52.548;4.918;2022-09-09T06:15:01;9.60;;;2.20;;
16977;SDS011;8605;52.548;4.918;2022-09-09T06:20:26;7.77;;;2.70;;
16977;SDS011;8605;52.548;4.918;2022-09-09T06:25:59;5.67;;;2.00;;
16977;SDS011;8605;52.548;4.918;2022-09-09T06:31:25;8.80;;;2.77;;
16977;SDS011;8605;52.548;4.918;2022-09-09T06:36:57;6.37;;;2.60;;
16977;SDS011;8605;52.548;4.918;2022-09-09T06:42:27;4.97;;;2.53;;
16977;SDS011;8605;52.548;4.918;2022-09-09T06:48:00;4.50;;;2.70;;
16977;SDS011;8605;52.548;4.918;2022-09-09T06:53:25;7.83;;;2.67;;
16977;SDS011;8605;52.548;4.918;2022-09-09T06:58:49;5.10;;;1.93;;
16977;SDS011;8605;52.548;4.918;2022-09-09T07:04:19;9.50;;;2.17;;
16977;SDS011;8605;52.548;4.918;2022-09-09T07:09:44;5.17;;;2.30;;
16977;SDS011;8605;52.548;4.918;2022-09-09T07:15:08;6.80;;;2.33;;
16977;SDS011;8605;52.548;4.918;2022-09-09T07:20:36;4.90;;;2.40;;
16977;SDS011;8605;52.548;4.918;2022-09-09T07:26:01;5.37;;;2.67;;
16977;SDS011;8605;52.548;4.918;2022-09-09T07:31:25;7.43;;;4.13;;
16977;SDS011;8605;52.548;4.918;2022-09-09T07:36:53;8.00;;;3.00;;
16977;SDS011;8605;52.548;4.918;2022-09-09T07:42:17;5.43;;;4.10;;
16977;SDS011;8605;52.548;4.918;2022-09-09T07:47:41;12.00;;;4.67;;
16977;SDS011;8605;52.548;4.918;2022-09-09T07:53:05;8.80;;;5.50;;
16977;SDS011;8605;52.548;4.918;2022-09-09T07:58:30;6.87;;;4.13;;
16977;SDS011;8605;52.548;4.918;2022-09-09T08:04:00;4.77;;;3.43;;
16977;SDS011;8605;52.548;4.918;2022-09-09T08:09:25;5.75;;;4.68;;
16977;SDS011;8605;52.548;4.918;2022-09-09T08:15:07;8.40;;;3.50;;
16977;SDS011;8605;52.548;4.918;2022-09-09T08:20:32;11.43;;;3.33;;
16977;SDS011;8605;52.548;4.918;2022-09-09T08:26:02;7.00;;;4.23;;
16977;SDS011;8605;52.548;4.918;2022-09-09T08:31:28;11.52;;;4.25;;
16977;SDS011;8605;52.548;4.918;2022-09-09T08:36:53;8.55;;;4.72;;
16977;SDS011;8605;52.548;4.918;2022-09-09T08:42:31;8.25;;;3.28;;
16977;SDS011;8605;52.548;4.918;2022-09-09T08:48:06;11.82;;;3.55;;
16977;SDS011;8605;52.548;4.918;2022-09-09T08:53:38;6.57;;;2.67;;
16977;SDS011;8605;52.548;4.918;2022-09-09T08:59:04;12.43;;;3.75;;
16977;SDS011;8605;52.548;4.918;2022-09-09T09:04:39;6.40;;;3.25;;
16977;SDS011;8605;52.548;4.918;2022-09-09T09:10:12;4.27;;;2.63;;
16977;SDS011;8605;52.548;4.918;2022-09-09T09:16:02;7.73;;;3.23;;
16977;SDS011;8605;52.548;4.918;2022-09-09T09:21:34;5.18;;;2.85;;
16977;SDS011;8605;52.548;4.918;2022-09-09T09:27:04;7.90;;;2.87;;
16977;SDS011;8605;52.548;4.918;2022-09-09T09:32:39;7.17;;;2.67;;
16977;SDS011;8605;52.548;4.918;2022-09-09T09:38:11;6.37;;;3.20;;
16977;SDS011;8605;52.548;4.918;2022-09-09T09:43:59;10.23;;;3.57;;
16977;SDS011;8605;52.548;4.918;2022-09-09T09:49:23;5.35;;;2.70;;
16977;SDS011;8605;52.548;4.918;2022-09-09T09:54:48;6.65;;;2.72;;
16977;SDS011;8605;52.548;4.918;2022-09-09T10:00:12;9.50;;;3.07;;
16977;SDS011;8605;52.548;4.918;2022-09-09T10:05:45;8.15;;;3.75;;
16977;SDS011;8605;52.548;4.918;2022-09-09T10:11:21;13.07;;;3.45;;
16977;SDS011;8605;52.548;4.918;2022-09-09T10:16:52;11.43;;;3.77;;
16977;SDS011;8605;52.548;4.918;2022-09-09T10:22:27;8.45;;;2.47;;
16977;SDS011;8605;52.548;4.918;2022-09-09T10:28:07;4.95;;;2.67;;
16977;SDS011;8605;52.548;4.918;2022-09-09T10:33:42;5.88;;;2.90;;
16977;SDS011;8605;52.548;4.918;2022-09-09T10:39:13;5.70;;;2.42;;
16977;SDS011;8605;52.548;4.918;2022-09-09T10:44:49;7.05;;;3.22;;
16977;SDS011;8605;52.548;4.918;2022-09-09T10:50:29;3.53;;;2.05;;
16977;SDS011;8605;52.548;4.918;2022-09-09T10:56:24;3.20;;;2.63;;
16977;SDS011;8605;52.548;4.918;2022-09-09T11:01:52;4.72;;;2.67;;
16977;SDS011;8605;52.548;4.918;2022-09-09T11:07:23;5.03;;;1.83;;
16977;SDS011;8605;52.548;4.918;2022-09-09T11:12:50;2.30;;;1.77;;
16977;SDS011;8605;52.548;4.918;2022-09-09T11:18:17;9.00;;;2.33;;
16977;SDS011;8605;52.548;4.918;2022-09-09T11:23:44;9.93;;;2.45;;
16977;SDS011;8605;52.548;4.918;2022-09-09T11:29:18;3.85;;;1.70;;
16977;SDS011;8605;52.548;4.918;2022-09-09T11:34:55;5.75;;;1.63;;
16977;SDS011;8605;52.548;4.918;2022-09-09T11:40:22;2.13;;;1.92;;
16977;SDS011;8605;52.548;4.918;2022-09-09T11:45:50;3.38;;;1.80;;
16977;SDS011;8605;52.548;4.918;2022-09-09T11:51:27;1.75;;;1.40;;
16977;SDS011;8605;52.548;4.918;2022-09-09T11:56:51;4.18;;;1.27;;
16977;SDS011;8605;52.548;4.918;2022-09-09T12:02:17;10.40;;;1.52;;
16977;SDS011;8605;52.548;4.918;2022-09-09T12:07:48;3.63;;;1.58;;
16977;SDS011;8605;52.548;4.918;2022-09-09T12:13:16;4.18;;;1.50;;
16977;SDS011;8605;52.548;4.918;2022-09-09T12:18:40;6.22;;;1.98;;
16977;SDS011;8605;52.548;4.918;2022-09-09T12:24:07;7.07;;;1.55;;
16977;SDS011;8605;52.548;4.918;2022-09-09T12:29:34;3.05;;;1.05;;
16977;SDS011;8605;52.548;4.918;2022-09-09T12:35:02;2.78;;;2.00;;
16977;SDS011;8605;52.548;4.918;2022-09-09T12:40:29;4.65;;;1.58;;
16977;SDS011;8605;52.548;4.918;2022-09-09T12:45:54;2.78;;;1.45;;
16977;SDS011;8605;52.548;4.918;2022-09-09T12:51:22;3.63;;;1.67;;
16977;SDS011;8605;52.548;4.918;2022-09-09T12:56:49;2.65;;;1.70;;
16977;SDS011;8605;52.548;4.918;2022-09-09T13:02:20;5.13;;;1.45;;
16977;SDS011;8605;52.548;4.918;2022-09-09T13:07:44;6.80;;;1.75;;
16977;SDS011;8605;52.548;4.918;2022-09-09T13:13:14;4.45;;;1.75;;
16977;SDS011;8605;52.548;4.918;2022-09-09T13:18:39;2.45;;;1.70;;
16977;SDS011;8605;52.548;4.918;2022-09-09T13:24:04;4.38;;;1.92;;
16977;SDS011;8605;52.548;4.918;2022-09-09T13:29:31;7.80;;;2.22;;
16977;SDS011;8605;52.548;4.918;2022-09-09T13:34:55;1.63;;;1.13;;
16977;SDS011;8605;52.548;4.918;2022-09-09T13:40:20;4.32;;;1.50;;
16977;SDS011;8605;52.548;4.918;2022-09-09T13:45:53;2.00;;;1.83;;
16977;SDS011;8605;52.548;4.918;2022-09-09T13:51:21;2.42;;;1.65;;
16977;SDS011;8605;52.548;4.918;2022-09-09T13:56:52;2.30;;;1.50;;
16977;SDS011;8605;52.548;4.918;2022-09-09T14:02:18;2.20;;;1.30;;
16977;SDS011;8605;52.548;4.918;2022-09-09T14:07:43;5.72;;;1.30;;
16977;SDS011;8605;52.548;4.918;2022-09-09T14:13:10;2.05;;;1.33;;
16977;SDS011;8605;52.548;4.918;2022-09-09T14:18:35;2.28;;;1.75;;
16977;SDS011;8605;52.548;4.918;2022-09-09T14:23:59;5.93;;;1.40;;
16977;SDS011;8605;52.548;4.918;2022-09-09T14:29:23;3.85;;;1.80;;
16977;SDS011;8605;52.548;4.918;2022-09-09T14:34:49;2.03;;;1.33;;
16977;SDS011;8605;52.548;4.918;2022-09-09T14:40:12;2.67;;;2.35;;
16977;SDS011;8605;52.548;4.918;2022-09-09T14:45:36;2.25;;;1.23;;
16977;SDS011;8605;52.548;4.918;2022-09-09T14:51:05;2.60;;;1.48;;
16977;SDS011;8605;52.548;4.918;2022-09-09T14:56:30;7.60;;;1.30;;
16977;SDS011;8605;52.548;4.918;2022-09-09T15:01:56;2.92;;;1.50;;
16977;SDS011;8605;52.548;4.918;2022-09-09T15:07:20;1.83;;;1.10;;
16977;SDS011;8605;52.548;4.918;2022-09-09T15:12:44;5.18;;;1.70;;
16977;SDS011;8605;52.548;4.918;2022-09-09T15:18:07;4.97;;;1.70;;
16977;SDS011;8605;52.548;4.918;2022-09-09T15:23:32;3.67;;;1.65;;
16977;SDS011;8605;52.548;4.918;2022-09-09T15:28:57;1.65;;;1.55;;
16977;SDS011;8605;52.548;4.918;2022-09-09T15:34:21;1.65;;;1.40;;
16977;SDS011;8605;52.548;4.918;2022-09-09T15:39:46;2.58;;;1.10;;
16977;SDS011;8605;52.548;4.918;2022-09-09T15:45:10;1.58;;;1.10;;
16977;SDS011;8605;52.548;4.918;2022-09-09T15:50:34;1.65;;;1.10;;
16977;SDS011;8605;52.548;4.918;2022-09-09T15:55:58;1.45;;;1.08;;
16977;SDS011;8605;52.548;4.918;2022-09-09T16:01:23;2.05;;;1.15;;
16977;SDS011;8605;52.548;4.918;2022-09-09T16:06:46;1.75;;;1.13;;
16977;SDS011;8605;52.548;4.918;2022-09-09T16:12:11;7.18;;;1.13;;
16977;SDS011;8605;52.548;4.918;2022-09-09T16:17:34;4.20;;;1.55;;
16977;SDS011;8605;52.548;4.918;2022-09-09T16:22:59;3.08;;;1.25;;
16977;SDS011;8605;52.548;4.918;2022-09-09T16:28:24;2.58;;;1.45;;
16977;SDS011;8605;52.548;4.918;2022-09-09T16:33:48;3.65;;;2.03;;
16977;SDS011;8605;52.548;4.918;2022-09-09T16:39:13;5.93;;;1.37;;
16977;SDS011;8605;52.548;4.918;2022-09-09T16:44:38;4.30;;;1.10;;
16977;SDS011;8605;52.548;4.918;2022-09-09T16:50:02;3.13;;;1.10;;
16977;SDS011;8605;52.548;4.918;2022-09-09T16:55:25;2.87;;;0.80;;
16977;SDS011;8605;52.548;4.918;2022-09-09T17:00:49;1.43;;;1.10;;
16977;SDS011;8605;52.548;4.918;2022-09-09T17:06:14;2.05;;;1.30;;
16977;SDS011;8605;52.548;4.918;2022-09-09T17:11:38;2.15;;;1.23;;
16977;SDS011;8605;52.548;4.918;2022-09-09T17:17:03;2.70;;;1.20;;
16977;SDS011;8605;52.548;4.918;2022-09-09T17:22:46;1.77;;;1.17;;
16977;SDS011;8605;52.548;4.918;2022-09-09T17:28:10;3.67;;;0.90;;
16977;SDS011;8605;52.548;4.918;2022-09-09T17:33:35;3.67;;;1.17;;
16977;SDS011;8605;52.548;4.918;2022-09-09T17:39:00;1.57;;;0.97;;
16977;SDS011;8605;52.548;4.918;2022-09-09T17:44:24;8.70;;;1.77;;
16977;SDS011;8605;52.548;4.918;2022-09-09T17:49:49;2.20;;;1.25;;
16977;SDS011;8605;52.548;4.918;2022-09-09T17:55:12;3.07;;;1.97;;
16977;SDS011;8605;52.548;4.918;2022-09-09T18:00:35;2.57;;;1.33;;
16977;SDS011;8605;52.548;4.918;2022-09-09T18:06:00;6.88;;;1.67;;
16977;SDS011;8605;52.548;4.918;2022-09-09T18:11:26;6.30;;;3.00;;
16977;SDS011;8605;52.548;4.918;2022-09-09T18:16:50;5.43;;;2.20;;
16977;SDS011;8605;52.548;4.918;2022-09-09T18:22:15;2.63;;;1.73;;
16977;SDS011;8605;52.548;4.918;2022-09-09T18:27:40;4.03;;;1.90;;
16977;SDS011;8605;52.548;4.918;2022-09-09T18:33:03;8.27;;;2.03;;
16977;SDS011;8605;52.548;4.918;2022-09-09T18:38:27;2.73;;;2.40;;
16977;SDS011;8605;52.548;4.918;2022-09-09T18:43:51;3.65;;;2.47;;
16977;SDS011;8605;52.548;4.918;2022-09-09T18:49:15;6.43;;;2.10;;
16977;SDS011;8605;52.548;4.918;2022-09-09T18:54:40;3.17;;;2.20;;
16977;SDS011;8605;52.548;4.918;2022-09-09T19:00:06;6.37;;;2.17;;
16977;SDS011;8605;52.548;4.918;2022-09-09T19:05:32;5.27;;;2.40;;
16977;SDS011;8605;52.548;4.918;2022-09-09T19:11:01;8.43;;;3.00;;
16977;SDS011;8605;52.548;4.918;2022-09-09T19:16:26;7.73;;;4.53;;
16977;SDS011;8605;52.548;4.918;2022-09-09T19:21:50;6.60;;;3.70;;
16977;SDS011;8605;52.548;4.918;2022-09-09T19:27:17;7.43;;;3.83;;
16977;SDS011;8605;52.548;4.918;2022-09-09T19:32:40;7.80;;;2.80;;
16977;SDS011;8605;52.548;4.918;2022-09-09T19:38:14;12.20;;;5.70;;
16977;SDS011;8605;52.548;4.918;2022-09-09T19:43:38;7.83;;;4.80;;
16977;SDS011;8605;52.548;4.918;2022-09-09T19:49:02;7.57;;;4.30;;
16977;SDS011;8605;52.548;4.918;2022-09-09T19:54:27;13.30;;;6.70;;
16977;SDS011;8605;52.548;4.918;2022-09-09T19:59:51;10.70;;;3.90;;
16977;SDS011;8605;52.548;4.918;2022-09-09T20:05:14;6.67;;;4.20;;
16977;SDS011;8605;52.548;4.918;2022-09-09T20:10:38;7.03;;;4.23;;
16977;SDS011;8605;52.548;4.918;2022-09-09T20:16:03;7.03;;;3.60;;
16977;SDS011;8605;52.548;4.918;2022-09-09T20:21:28;6.80;;;3.80;;
16977;SDS011;8605;52.548;4.918;2022-09-09T20:26:52;8.30;;;4.00;;
16977;SDS011;8605;52.548;4.918;2022-09-09T20:32:18;8.10;;;4.80;;
16977;SDS011;8605;52.548;4.918;2022-09-09T20:37:41;7.87;;;4.20;;
16977;SDS011;8605;52.548;4.918;2022-09-09T20:43:09;6.00;;;3.30;;
16977;SDS011;8605;52.548;4.918;2022-09-09T20:48:35;7.70;;;3.97;;
16977;SDS011;8605;52.548;4.918;2022-09-09T20:53:59;6.63;;;3.33;;
16977;SDS011;8605;52.548;4.918;2022-09-09T20:59:24;8.53;;;4.13;;
16977;SDS011;8605;52.548;4.918;2022-09-09T21:04:50;9.47;;;4.10;;
16977;SDS011;8605;52.548;4.918;2022-09-09T21:10:13;7.87;;;3.87;;
16977;SDS011;8605;52.548;4.918;2022-09-09T21:15:39;8.40;;;4.43;;
16977;SDS011;8605;52.548;4.918;2022-09-09T21:21:06;5.90;;;3.83;;
16977;SDS011;8605;52.548;4.918;2022-09-09T21:26:29;9.30;;;2.97;;
16977;SDS011;8605;52.548;4.918;2022-09-09T21:31:53;4.60;;;3.23;;
16977;SDS011;8605;52.548;4.918;2022-09-09T21:37:17;11.87;;;4.57;;
16977;SDS011;8605;52.548;4.918;2022-09-09T21:42:40;11.63;;;4.17;;
16977;SDS011;8605;52.548;4.918;2022-09-09T21:48:07;10.03;;;4.40;;
16977;SDS011;8605;52.548;4.918;2022-09-09T21:53:32;13.87;;;6.67;;
16977;SDS011;8605;52.548;4.918;2022-09-09T21:58:56;6.93;;;4.30;;
16977;SDS011;8605;52.548;4.918;2022-09-09T22:04:19;11.23;;;4.20;;
16977;SDS011;8605;52.548;4.918;2022-09-09T22:09:44;10.30;;;5.13;;
16977;SDS011;8605;52.548;4.918;2022-09-09T22:15:07;10.43;;;4.43;;
16977;SDS011;8605;52.548;4.918;2022-09-09T22:20:32;12.97;;;4.43;;
16977;SDS011;8605;52.548;4.918;2022-09-09T22:25:57;9.27;;;3.80;;
16977;SDS011;8605;52.548;4.918;2022-09-09T22:31:20;10.17;;;4.90;;
16977;SDS011;8605;52.548;4.918;2022-09-09T22:36:44;13.13;;;6.40;;
16977;SDS011;8605;52.548;4.918;2022-09-09T22:42:09;11.27;;;5.57;;
16977;SDS011;8605;52.548;4.918;2022-09-09T22:47:34;13.83;;;5.83;;
16977;SDS011;8605;52.548;4.918;2022-09-09T22:52:57;15.90;;;6.43;;
16977;SDS011;8605;52.548;4.918;2022-09-09T22:58:22;12.90;;;6.33;;
16977;SDS011;8605;52.548;4.918;2022-09-09T23:03:46;10.80;;;6.53;;
16977;SDS011;8605;52.548;4.918;2022-09-09T23:09:10;18.57;;;7.40;;
16977;SDS011;8605;52.548;4.918;2022-09-09T23:14:35;11.57;;;6.30;;
16977;SDS011;8605;52.548;4.918;2022-09-09T23:19:58;15.93;;;6.33;;
16977;SDS011;8605;52.548;4.918;2022-09-09T23:25:21;15.20;;;7.30;;
16977;SDS011;8605;52.548;4.918;2022-09-09T23:30:46;21.17;;;7.70;;
16977;SDS011;8605;52.548;4.918;2022-09-09T23:36:10;14.70;;;7.47;;
16977;SDS011;8605;52.548;4.918;2022-09-09T23:41:34;10.10;;;6.70;;
16977;SDS011;8605;52.548;4.918;2022-09-09T23:46:59;10.60;;;6.53;;
16977;SDS011;8605;52.548;4.918;2022-09-09T23:52:24;9.17;;;6.23;;
16977;SDS011;8605;52.548;4.918;2022-09-09T23:57:47;10.73;;;5.83;;
